Tiempo atmosférico en la estación meteorológica de Huesca Aeropuerto, Huesca (541 m.)



Fecha
DESCASC
Temp. máxima en grados centígrados (hora)
DESCASC
Temp. mínima en grados centígrados (hora)
DESCASC
Temp. media en grados centígrados
DESCASC
Racha de viento máxima en m/sg (hora)
DESCASC
Velocidad máxima media en intervalos de 10 minutos(hora)
DESCASC
Precipitaciones diarias en mm
DESCASC
Precipitaciones de 00:00 a 06:00 en mm
DESCASC
Precipitaciones de 06:00 a 12:00 en mm
DESCASC
Precipitaciones de 12:00 a 18:00 en mm
DESCASC
Precipitaciones de 18:00 a 24:00 en mm
DESCASC
08-12-2019 10.2 (14:50) 2.1 (07:30) 6.1 7.22 (19:20) 3.06 (14:20) 0.8 0 0 0.6 0.2
07-12-2019 10 (14:50) 2.2 (22:10) 6.1 4.44 (16:10) 2.5 (16:10) 0 0 0 0 0
06-12-2019 13.8 (14:10) 5.9 (23:50) 9.9 3.89 (15:30) 2.22 (09:30) 0 0 0 0 0
05-12-2019 11.7 (14:40) 5.8 (00:00) 8.8 6.67 (15:10) 2.78 (15:00) 1.8 1.8 0 0 0
04-12-2019 7.5 (14:50) 4.7 (00:00) 6.1 4.72 (15:40) 2.78 (15:40) 0.2 0 0 0.2 0
03-12-2019 5.1 (15:10) -1 (-00:0) 2 5 (11:30) 3.33 (11:30) 0 0 0 0 0
02-12-2019 12 (14:30) 2.4 (00:00) 7.2 4.72 (15:20) 2.5 (22:00) 0 0 0 0 0
01-12-2019 11.2 (14:00) 4.2 (00:00) 7.7 4.44 (00:40) 2.5 (21:50) 0.4 0.4 0 0 0
30-11-2019 13.5 (15:40) 5.7 (00:00) 9.6 6.94 (15:20) 4.72 (15:20) 1 0 0 0 1
29-11-2019 15.3 (12:20) 7.6 (00:00) 11.5 8.89 (14:00) 3.89 (13:10) 0 0 0 0 0
28-11-2019 14.2 (13:50) 7.7 (00:00) 10.9 6.39 (12:30) 2.5 (13:20) 0.4 0 0 0 0.4
27-11-2019 13.1 (14:00) 7 (00:00) 10.1 6.39 (13:30) 2.5 (15:30) 7 6.4 0 0 0.6
26-11-2019 13.8 (15:00) 5.8 (00:00) 9.8 4.72 (21:20) 3.33 (20:50) 3.4 0 0 0 3.4
25-11-2019 15.5 (14:00) 5.3 (00:00) 10.4 7.5 (15:00) 3.33 (13:40) 1.2 1.2 0 0 0
24-11-2019 11.6 (14:20) 4.8 (00:00) 8.2 11.94 (12:00) 4.17 (11:20) 0 0 0 0 0
23-11-2019 8.8 (14:20) 5.5 (00:00) 7.2 12.22 (14:50) 5 (14:20) 2 0 2 0 0
22-11-2019 9.6 (22:30) 5.2 (00:00) 7.4 12.78 (18:30) 7.5 (18:10) 16 0 0.2 5.4 10.4
21-11-2019 10.7 (14:40) 4.2 (00:00) 7.4 4.44 (14:40) 2.78 (23:50) 1 1 0 0 0
20-11-2019 8.9 (14:50) 0.8 (00:00) 4.8 5.56 (13:50) 3.61 (13:50) 0 0 0 0 0
19-11-2019 9.3 (14:30) -2.3 (-00:0) 3.5 4.72 (14:00) 3.06 (22:10) 0 0 0 0 0
18-11-2019 11 (13:50) 1.1 (00:00) 6.1 6.11 (14:30) 3.06 (15:30) 0 0 0 0 0
17-11-2019 8.7 (13:50) 1.2 (00:00) 4.9 9.17 (02:30) 3.61 (01:40) 0 0 0 0 0
16-11-2019 4.4 (13:00) -1.8 (-00:0) 1.3 6.39 (23:00) 3.89 (09:50) 1.8 0 0 1.8 0
15-11-2019 6.9 (16:20) 0 (00:00) 3.5 10 (15:00) 3.61 (15:20) 0.4 0 0 0.4 0
14-11-2019 8.6 (14:10) 2.8 (00:00) 5.7 10 (13:40) 4.44 (13:50) 4.2 0.8 3.4 0 0
13-11-2019 14.3 (13:10) 5 (00:00) 9.7 12.22 (14:30) 4.44 (14:20) 0.2 0 0.2 0 0
12-11-2019 11.8 (14:10) 4.1 (00:00) 8 13.06 (11:40) 5.83 (11:20) 0 0 0 0 0
11-11-2019 11.2 (13:30) 1.6 (01:40) 6.4 13.89 (17:30) 6.11 (20:10) 0 0 0 0 0
10-11-2019 8.2 (13:00) 2 (00:00) 5.1 11.67 (14:30) 4.44 (12:30) 0 0 0 0 0

Gráficas

Temp. máximas Temp. mínimas Temp. medias Precipitaciones Rachas de viento máximas Velocidades máximas media en intervalos de 10 minutos

Datos horarios

Fecha y hora oficial Temperatura (ºC) Velocidad del viento (km/h) Dirección del viento Racha (km/h) Dirección de racha Precipitación (mm) Presión (hPa) Tendencia (hPa) Humedad (%)
2019-12-09 23:00:00 7.5 14 Oeste 35 Oeste 0 959.7 0.5 73
2019-12-09 22:00:00 6.7 10 Oeste 30 Sudoeste 0 959.3 1.7 78
2019-12-09 21:00:00 6.5 8 Oeste 32 Noroeste 0 959.1 2 78
2019-12-09 20:00:00 8.3 9 Noroeste 42 Norte 0 959.2 1.5 66
2019-12-09 19:00:00 8.5 18 Norte 53 Norte 0 957.6 0.3 66
2019-12-09 18:00:00 8.6 19 Noroeste 52 Norte 0 957.1 0.3 68
2019-12-09 17:00:00 9 18 Noroeste 45 Noroeste 0 957.7 1.2 67
2019-12-09 16:00:00 9.8 16 Noroeste 46 Noroeste 0 957.3 0.2 65
2019-12-09 15:00:00 10 15 Noroeste 46 Noroeste 0 956.8 -0.7 70
2019-12-09 14:00:00 10.5 18 Noroeste 48 Noroeste 0 956.5 -1.7 65
2019-12-09 13:00:00 10.1 19 Oeste 43 Oeste 0 957.1 -0.7 76
2019-12-09 12:00:00 9.4 18 Oeste 43 Oeste 0 957.5 -0.2 78
2019-12-09 11:00:00 8.4 14 Oeste 40 Oeste 0 958.2 1.2 80
2019-12-09 10:00:00 7.2 14 Oeste 36 Oeste 0 957.8 1.2 80
2019-12-09 09:00:00 7.8 12 Noroeste 36 Noroeste 0 957.7 0.9 74
2019-12-09 08:00:00 7.6 13 Noroeste 40 Noroeste 0 957 0.2 72
2019-12-09 07:00:00 6.3 12 Noroeste 39 Norte 0 956.6 -0.5 79
2019-12-09 06:00:00 4.7 9 Oeste 26 Oeste 0 956.8 -0.3 89
2019-12-09 05:00:00 5 6 Oeste 23 Noroeste 0 956.8 0.4 84
2019-12-09 04:00:00 4.8 8 Oeste 18 Oeste 0 957.1 0.9 86
2019-12-09 03:00:00 5.1 6 Oeste 21 Oeste 0 957.1 1.1 89
2019-12-09 02:00:00 5.4 9 Oeste 23 Noroeste 0 956.4 0.6 88
2019-12-09 01:00:00 6.6 9 Noroeste 26 Oeste 0 956.2 0.8 86
2019-12-09 00:00:00 7.1 8 Oeste 19 Oeste 0 956 0.5 85
2019-12-08 23:00:00 8.4 7 Oeste 24 Oeste 0 955.8 0.2 84
2019-12-08 22:00:00 7.8 5 Oeste 23 Sudoeste 0 955.4 0.1 97
2019-12-08 21:00:00 8.1 8 Oeste 21 Oeste 0 955.5 0.3 100
2019-12-08 20:00:00 8 7 Oeste 26 Oeste 0 955.6 0.7 100
2019-12-08 19:00:00 8.1 9 Oeste 19 Oeste 0.2 955.3 0.3 100
2019-12-08 18:00:00 8.5 6 Oeste 19 Noroeste 0.4 955.2 0.1 99
2019-12-08 17:00:00 8.6 6 Oeste 19 Noroeste 0.2 954.9 -0.5 95
2019-12-08 16:00:00 9.4 6 Oeste 19 Oeste 0 955 -1.3 87
2019-12-08 15:00:00 10.1 8 Oeste 19 Oeste 0 955.1 -2 86
2019-12-08 14:00:00 9.2 9 Oeste 22 Oeste 0 955.4 -2.3 91
2019-12-08 13:00:00 7.1 6 Oeste 15 Sudoeste 0 956.3 -1.3 100
2019-12-08 12:00:00 4.7 5 Oeste 14 Oeste 0 957.1 -0.7 100
2019-12-08 11:00:00 3.4 5 Oeste 10 Oeste 0 957.7 0.2 100
2019-12-08 10:00:00 2.8 5 Oeste 9 Oeste 0 957.6 0.5 100
2019-12-08 09:00:00 2.7 4 Noroeste 7 Noroeste 0 957.8 0.7 100
2019-12-08 08:00:00 2.4 2 Oeste 8 Este 0 957.5 0.2 100
2019-12-08 07:00:00 2.8 4 Este 7 Este 0 957.1 -0.6 100
2019-12-08 06:00:00 3.4 3 Noroeste 5 Noroeste 0 957.1 -1 100
2019-12-08 05:00:00 3.4 0 Calma 6 Este 0 957.3 -0.9 100
2019-12-08 04:00:00 3.4 3 Este 6 Este 0 957.7 -0.8 100
2019-12-08 03:00:00 3.3 3 Noroeste 5 Noroeste 0 958.1 -0.8 100
2019-12-08 02:00:00 3.1 4 Este 8 Este 0 958.2 -0.4 100
2019-12-08 01:00:00 3.5 0 Calma 8 Sudeste 0 958.5 0 100
2019-12-08 00:00:00 3.3 4 Sudeste 13 Este 0 958.9 0.7 100
2019-12-07 23:00:00 2.6 5 Sudeste 8 Sudeste 0 958.6 0.7 100
2019-12-07 22:00:00 2.3 3 Este 6 Este 0 958.5 1.1 99
2019-12-07 21:00:00 3.6 4 Sudeste 7 Sudeste 0 958.2 1.1 95
2019-12-07 20:00:00 5.4 3 Sur 5 Sudoeste 0 957.9 0.9 94
2019-12-07 19:00:00 6.4 3 Oeste 6 Sudoeste 0 957.4 0.5 92
2019-12-07 18:00:00 7.6 4 Oeste 7 Sudoeste 0 957.1 0.1 90
2019-12-07 17:00:00 9.3 5 Oeste 16 Sudoeste 0 957 -0.5 83
2019-12-07 16:00:00 9.9 4 Oeste 15 Sudoeste 0 956.9 -1.1 81
2019-12-07 15:00:00 9.9 6 Oeste 13 Noroeste 0 957 -1.6 82
2019-12-07 14:00:00 9.6 5 Oeste 14 Sudoeste 0 957.5 -1.3 83
2019-12-07 13:00:00 9 6 Oeste 13 Oeste 0 958 -0.3 87
2019-12-07 12:00:00 8 7 Sudoeste 12 Sudoeste 0 958.6 0.7 85
2019-12-07 11:00:00 6.7 4 Sudoeste 7 Oeste 0 958.8 1.1 94
2019-12-07 10:00:00 4.8 4 Este 5 Este 0 958.3 0.9 98
2019-12-07 09:00:00 3.5 3 Este 5 Nordeste 0 957.9 0.7 99
2019-12-07 08:00:00 3.2 6 Este 9 Este 0 957.7 0.4 98
2019-12-07 07:00:00 3.6 0 Calma 5 Noroeste 0 957.4 -0.1 98
2019-12-07 06:00:00 3.8 0 Calma 5 Nordeste 0 957.2 -0.5 98
2019-12-07 05:00:00 3.9 2 Nordeste 5 Nordeste 0 957.3 -0.3 97
2019-12-07 04:00:00 4.7 3 Sudoeste 5 Sur 0 957.5 -0.5 99
2019-12-07 03:00:00 4.8 2 Sudoeste 5 Noroeste 0 957.7 -0.4 94
2019-12-07 02:00:00 6.1 3 Oeste 8 Noroeste 0 957.6 -0.1 94
2019-12-07 01:00:00 6.5 4 Noroeste 7 Noroeste 0 958 0.3 94
2019-12-07 00:00:00 6 3 Noroeste 5 Oeste 0 958.1 0.5 95
2019-12-06 23:00:00 6.4 2 Noroeste 6 Noroeste 0 957.7 0.3 92
2019-12-06 22:00:00 6.9 2 Noroeste 8 Oeste 0 957.7 0.6 90
2019-12-06 21:00:00 7.3 4 Norte 8 Noroeste 0 957.6 0.8 91
2019-12-06 20:00:00 7.5 3 Noroeste 6 Noroeste 0 957.4 0.8 89
2019-12-06 19:00:00 8.1 3 Noroeste 8 Oeste 0 957.1 0.4 88
2019-12-06 18:00:00 9.5 4 Oeste 9 Sudoeste 0 956.8 0 82
2019-12-06 17:00:00 11.4 4 Sudoeste 13 Sudoeste 0 956.6 -0.8 76
2019-12-06 16:00:00 12.4 6 Oeste 14 Oeste 0 956.7 -1.4 73
2019-12-06 15:00:00 13.2 7 Sudoeste 14 Oeste 0 956.8 -2.2 68
2019-12-06 14:00:00 13.7 5 Oeste 11 Noroeste 0 957.4 -2 67
2019-12-06 13:00:00 12.5 6 Noroeste 13 Noroeste 0 958.1 -0.9 72
2019-12-06 12:00:00 10.5 5 Noroeste 10 Noroeste 0 959 0.6 80
2019-12-06 11:00:00 8.6 5 Oeste 8 Oeste 0 959.4 1.4 85
2019-12-06 10:00:00 7.2 4 Sudoeste 12 Sur 0 959 1.4 92
2019-12-06 09:00:00 8.6 3 Oeste 7 Noroeste 0 958.4 1.2 86
2019-12-06 08:00:00 7.8 3 Norte 5 Norte 0 958 0.8 88
2019-12-06 07:00:00 7.1 3 Noroeste 5 Oeste 0 957.6 0.2 91
2019-12-06 06:00:00 7.5 3 Oeste 8 Noroeste 0 957.2 -0.4 87
2019-12-06 05:00:00 8.4 3 Oeste 7 Noroeste 0 957.2 -0.2 84
2019-12-06 04:00:00 8.7 4 Noroeste 5 Noroeste 0 957.4 -0.2 84
2019-12-06 03:00:00 8.4 0 Calma 6 Oeste 0 957.6 -0.1 87
2019-12-06 02:00:00 8.4 4 Noroeste 7 Norte 0 957.4 0 85
2019-12-06 01:00:00 8.3 5 Noroeste 8 Noroeste 0 957.6 0.3 87
2019-12-06 00:00:00 7.8 3 Este 8 Este 0 957.7 0.6 88
2019-12-05 23:00:00 7.5 2 Nordeste 5 Noroeste 0 957.4 0.6 91
2019-12-05 22:00:00 7.5 2 Norte 8 Norte 0 957.3 1.2 91
2019-12-05 21:00:00 6.7 3 Noroeste 5 Oeste 0 957.1 1.6 91
2019-12-05 20:00:00 7.6 2 Sudoeste 12 Oeste 0 956.8 1.9 86
2019-12-05 19:00:00 8.7 4 Oeste 13 Oeste 0 956.1 1.9 84
2019-12-05 18:00:00 9.7 5 Oeste 14 Sudoeste 0 955.5 1.8 82
2019-12-05 17:00:00 10.4 5 Oeste 14 Noroeste 0 954.9 1.3 80
2019-12-05 16:00:00 11.2 6 Oeste 24 Oeste 0 954.2 0.3 75
2019-12-05 15:00:00 11.6 10 Oeste 22 Oeste 0 953.7 -0.7 73
2019-12-05 14:00:00 11.1 8 Oeste 21 Noroeste 0 953.6 -0.7 78
2019-12-05 13:00:00 11.3 7 Oeste 18 Sudoeste 0 953.9 0.4 82
2019-12-05 12:00:00 8.9 5 Oeste 14 Oeste 0 954.4 1.8 89
2019-12-05 11:00:00 6.9 4 Oeste 13 Oeste 0 954.3 2.3 92
2019-12-05 10:00:00 6.1 5 Oeste 13 Noroeste 0 953.5 1.8 93
2019-12-05 09:00:00 6.1 5 Noroeste 17 Noroeste 0 952.6 1.4 90
2019-12-05 08:00:00 6 5 Oeste 10 Noroeste 0 952 1.2 92
2019-12-05 07:00:00 6.2 5 Noroeste 10 Oeste 0 951.7 1.1 93
2019-12-05 06:00:00 6.1 6 Oeste 9 Noroeste 0.4 951.2 1.2 94
2019-12-05 05:00:00 6.5 5 Noroeste 13 Noroeste 0.4 950.8 1.5 94
2019-12-05 04:00:00 6.6 6 Noroeste 12 Noroeste 0.4 950.6 1.5 93
2019-12-05 03:00:00 6.1 5 Noroeste 12 Noroeste 0.4 950 1.5 96
2019-12-05 02:00:00 6.1 7 Noroeste 13 Noroeste 0 949.3 1.8 95
2019-12-05 01:00:00 5.9 7 Noroeste 12 Oeste 0.2 949.1 2 96
2019-12-05 00:00:00 6.1 7 Noroeste 12 Noroeste 0 948.5 1.8 96
2019-12-04 23:00:00 6.3 5 Noroeste 8 Noroeste 0 947.5 1.5 93
2019-12-04 22:00:00 6.2 2 Norte 5 Sudeste 0 947.1 1.6 94
2019-12-04 21:00:00 6.7 3 Noroeste 8 Noroeste 0 946.7 1.2 91
2019-12-04 20:00:00 6.6 4 Oeste 11 Noroeste 0 946 1.2 91
2019-12-04 19:00:00 6.3 3 Norte 9 Norte 0 945.5 1.2 93
2019-12-04 18:00:00 6.7 4 Sur 8 Noroeste 0 945.5 1.1 91
2019-12-04 17:00:00 6.9 5 Noroeste 12 Oeste 0 944.8 0.2 89
2019-12-04 16:00:00 6.9 5 Oeste 17 Oeste 0 944.3 -0.9 92
2019-12-04 15:00:00 7.3 9 Oeste 15 Oeste 0 944.4 -1.2 89
2019-12-04 14:00:00 6.9 6 Oeste 12 Oeste 0.2 944.6 -1.5 90
2019-12-04 13:00:00 7.2 6 Oeste 12 Noroeste 0 945.2 -0.5 82
2019-12-04 12:00:00 6.6 5 Oeste 11 Oeste 0 945.6 -0.1 84
2019-12-04 11:00:00 6.6 6 Oeste 13 Oeste 0 946.1 0.1 79
2019-12-04 10:00:00 5.4 5 Oeste 11 Sudoeste 0 945.7 -0.6 82
2019-12-04 09:00:00 5.8 5 Noroeste 10 Noroeste 0 945.7 -0.9 75
2019-12-04 08:00:00 6.1 7 Noroeste 10 Noroeste 0 946 -1.3 74
2019-12-04 07:00:00 5.6 5 Oeste 9 Noroeste 0 946.3 -1.7 76
2019-12-04 06:00:00 6.1 4 Noroeste 10 Norte 0 946.6 -2.5 74
2019-12-04 05:00:00 5.9 5 Noroeste 9 Noroeste 0 947.3 -2.4 78
2019-12-04 04:00:00 5 5 Nordeste 10 Nordeste 0 948 -2.8 83
2019-12-04 03:00:00 5 3 Norte 12 Nordeste 0 949.1 -2.3 85
2019-12-04 02:00:00 4.8 6 Nordeste 9 Nordeste 0 949.7 -2.1 88
2019-12-04 01:00:00 4.9 3 Norte 8 Nordeste 0 950.8 -1.3 85
2019-12-04 00:00:00 4.8 4 Norte 9 Nordeste 0 951.4 -0.4 83
2019-12-03 23:00:00 3.9 4 Norte 10 Norte 0 951.8 0.2 93
2019-12-03 22:00:00 3 5 Noroeste 9 Norte 0 952.1 0.6 98
2019-12-03 21:00:00 2.6 6 Oeste 10 Oeste 0 951.8 -0.1 98
2019-12-03 20:00:00 2.9 6 Oeste 13 Oeste 0 951.6 -0.5 95
2019-12-03 19:00:00 3.3 3 Oeste 7 Norte 0 951.5 -0.6 95
2019-12-03 18:00:00 3.4 3 Norte 5 Norte 0 951.9 -0.1 95
2019-12-03 17:00:00 4.4 3 Sudeste 12 Sudeste 0 952.1 -0.4 90
2019-12-03 16:00:00 5 5 Sudeste 11 Sudeste 0 952.1 -1.1 89
2019-12-03 15:00:00 4.9 4 Sudeste 10 Sudeste 0 952 -1.6 89
2019-12-03 14:00:00 4.5 3 Sur 11 Sudeste 0 952.5 -1.3 91
2019-12-03 13:00:00 3.9 7 Sudeste 15 Sudeste 0 953.2 -0.3 95
2019-12-03 12:00:00 3.3 9 Sudeste 18 Este 0 953.6 0.4 100
2019-12-03 11:00:00 2.8 9 Este 17 Este 0 953.8 1.1 100
2019-12-03 10:00:00 2 7 Este 14 Este 0 953.5 1.1 100
2019-12-03 09:00:00 1.4 7 Este 13 Este 0 953.2 1 100
2019-12-03 08:00:00 0.2 6 Este 13 Sudeste 0 952.7 0.4 100
2019-12-03 07:00:00 -1 5 Este 6 Este 0 952.4 -0.1 98
2019-12-03 06:00:00 -0.2 2 Noroeste 11 Noroeste 0 952.2 -0.9 95
2019-12-03 05:00:00 0.5 7 Noroeste 12 Noroeste 0 952.3 -0.6 98
2019-12-03 04:00:00 0.8 8 Noroeste 12 Noroeste 0 952.5 -0.7 98
2019-12-03 03:00:00 1 7 Oeste 11 Oeste 0 953.1 0 97
2019-12-03 02:00:00 1.3 6 Oeste 11 Oeste 0 952.9 -0.3 97
2019-12-03 01:00:00 1.9 8 Oeste 15 Oeste 0 953.2 0.2 96
2019-12-03 00:00:00 2.4 9 Oeste 15 Oeste 0 953.1 0.5 95
2019-12-02 23:00:00 3 8 Oeste 17 Noroeste 0 953.2 0.9 94
2019-12-02 22:00:00 3.6 9 Noroeste 16 Noroeste 0 953 1.2 92
2019-12-02 21:00:00 4.7 6 Noroeste 14 Oeste 0 952.6 0.8 89
2019-12-02 20:00:00 5.9 6 Sudoeste 10 Sudoeste 0 952.3 0.7 86
2019-12-02 19:00:00 6.6 5 Sudoeste 10 Sudoeste 0 951.8 0.2 82
2019-12-02 18:00:00 8 5 Sudoeste 11 Oeste 0 951.8 0.4 77
2019-12-02 17:00:00 9.8 6 Oeste 15 Oeste 0 951.6 -0.2 69
2019-12-02 16:00:00 10.6 6 Oeste 17 Noroeste 0 951.6 -0.5 63
2019-12-02 15:00:00 11.3 6 Oeste 16 Oeste 0 951.4 -1.1 62
2019-12-02 14:00:00 11.7 6 Oeste 14 Sudoeste 0 951.8 -0.6 67
2019-12-02 13:00:00 10.6 6 Oeste 13 Sudoeste 0 952.1 0.3 69
2019-12-02 12:00:00 9.4 7 Oeste 10 Sudoeste 0 952.5 1.1 71
2019-12-02 11:00:00 7.9 3 Sudoeste 6 Sudoeste 0 952.4 1.4 75
2019-12-02 10:00:00 6 3 Noroeste 8 Oeste 0 951.8 1.4 82
2019-12-02 09:00:00 5 4 Noroeste 8 Noroeste 0 951.4 1.4 84
2019-12-02 08:00:00 3.8 5 Oeste 8 Oeste 0 951 1.3 89
2019-12-02 07:00:00 5 4 Oeste 6 Noroeste 0 950.4 0.7 85
2019-12-02 06:00:00 4.5 5 Noroeste 9 Noroeste 0 950 0.3 91
2019-12-02 05:00:00 3.2 2 Norte 9 Este 0 949.7 0.5 94
2019-12-02 04:00:00 3.7 7 Este 8 Este 0 949.7 0.6 97
2019-12-02 03:00:00 3.9 2 Noroeste 8 Noroeste 0 949.7 0.8 96
2019-12-02 02:00:00 4.7 5 Noroeste 9 Norte 0 949.2 0.7 99
2019-12-02 01:00:00 3.6 4 Norte 6 Norte 0 949.1 0.9 95
2019-12-02 00:00:00 4.3 3 Norte 10 Este 0 948.9 1.1 92
2019-12-01 23:00:00 5 7 Este 12 Este 0 948.5 0.9 93
2019-12-01 22:00:00 5.4 8 Este 13 Este 0 948.2 1.1 91
2019-12-01 21:00:00 6.2 5 Noroeste 9 Oeste 0 947.8 1.1 94
2019-12-01 20:00:00 6.6 4 Oeste 9 Noroeste 0 947.6 1.1 91
2019-12-01 19:00:00 7.3 4 Oeste 13 Oeste 0 947.1 0.6 87
2019-12-01 18:00:00 8.3 5 Oeste 14 Oeste 0 946.7 0 83
2019-12-01 17:00:00 9.6 4 Oeste 12 Oeste 0 946.5 -0.6 75
2019-12-01 16:00:00 10.2 5 Noroeste 14 Oeste 0 946.5 -0.9 72
2019-12-01 15:00:00 10.8 5 Oeste 15 Sudoeste 0 946.7 -1 70
2019-12-01 14:00:00 11 5 Sudoeste 13 Sudoeste 0 947.1 -1.1 73
2019-12-01 13:00:00 10.6 4 Oeste 13 Sudoeste 0 947.4 -0.5 78
2019-12-01 12:00:00 10 5 Sudoeste 11 Sudoeste 0 947.7 0.1 81
2019-12-01 11:00:00 8.3 2 Sur 9 Oeste 0 948.2 1.1 84
2019-12-01 10:00:00 7 4 Nordeste 8 Noroeste 0 947.9 1.1 93
2019-12-01 09:00:00 4.7 3 Norte 6 Norte 0 947.6 0.7 98
2019-12-01 08:00:00 4.5 3 Norte 11 Noroeste 0 947.1 0 94
2019-12-01 07:00:00 5.4 6 Noroeste 9 Oeste 0 946.8 -0.9 94
2019-12-01 06:00:00 5.4 3 Noroeste 9 Noroeste 0 946.9 -1.4 94
2019-12-01 05:00:00 6.1 3 Noroeste 9 Oeste 0 947.1 -0.9 94
2019-12-01 04:00:00 6.9 3 Noroeste 13 Oeste 0 947.7 -1 96
2019-12-01 03:00:00 7.1 4 Noroeste 8 Sur 0 948.3 -1.1 95
2019-12-01 02:00:00 7.8 3 Sudoeste 15 Sudoeste 0.2 948 -0.6 92
2019-12-01 01:00:00 8.3 4 Sudoeste 16 Sudoeste 0.2 948.7 0.5 94
2019-12-01 00:00:00 8.9 5 Oeste 12 Sudoeste 0 949.4 0.4 97
2019-11-30 23:00:00 9 4 Norte 16 Oeste 0 948.6 -0.1 99
2019-11-30 22:00:00 9 4 Sudeste 13 Nordeste 0.2 948.2 -0.3 96
2019-11-30 21:00:00 9.6 2 Oeste 14 Oeste 0.8 949 0.3 92
2019-11-30 20:00:00 10.4 5 Sudeste 19 Sudeste 0 948.7 -0.3 85
2019-11-30 19:00:00 11.1 14 Sudeste 19 Sudeste 0 948.5 -1.5 77
2019-11-30 18:00:00 11.7 11 Este 20 Este 0 948.7 -1.9 75
2019-11-30 17:00:00 12.5 14 Este 22 Sudeste 0 949 -2.6 74
2019-11-30 16:00:00 13 12 Este 25 Este 0 950 -2.7 73
2019-11-30 15:00:00 13.2 13 Este 21 Este 0 950.6 -3 69
2019-11-30 14:00:00 11.7 13 Este 19 Este 0 951.6 -2.6 75
2019-11-30 13:00:00 11 12 Este 18 Este 0 952.7 -1.4 69
2019-11-30 12:00:00 10.2 13 Este 20 Este 0 953.6 -0.4 73
2019-11-30 11:00:00 9.2 13 Este 20 Este 0 954.2 0 73
2019-11-30 10:00:00 7.8 10 Este 15 Este 0 954.1 0 74
2019-11-30 09:00:00 7.3 9 Este 13 Sudeste 0 954 -0.3 73
2019-11-30 08:00:00 7.2 8 Este 14 Este 0 954.2 -0.3 71
2019-11-30 07:00:00 6.6 11 Este 15 Sudeste 0 954.1 -0.8 73
2019-11-30 06:00:00 6.7 12 Este 14 Este 0 954.3 -0.7 69
2019-11-30 05:00:00 6.4 10 Este 15 Este 0 954.5 -0.5 68
2019-11-30 04:00:00 6.3 9 Este 13 Nordeste 0 954.9 -0.4 65
2019-11-30 03:00:00 5.8 8 Nordeste 12 Este 0 955 -0.3 69
2019-11-30 02:00:00 5.8 4 Nordeste 8 Noroeste 0 955 -0.1 76
2019-11-30 01:00:00 7.4 4 Noroeste 7 Noroeste 0 955.3 0.1 76
2019-11-30 00:00:00 7.6 4 Oeste 11 Noroeste 0 955.3 0.5 74
2019-11-29 23:00:00 7.7 5 Norte 10 Norte 0 955.1 0.5 74
2019-11-29 22:00:00 8.4 4 Noroeste 8 Noroeste 0 955.2 0.8 70
2019-11-29 21:00:00 8.5 4 Norte 12 Norte 0 954.8 0.7 67
2019-11-29 20:00:00 8.9 5 Noroeste 13 Noroeste 0 954.6 0.9 74
2019-11-29 19:00:00 10.1 7 Norte 17 Norte 0 954.4 1.2 67
2019-11-29 18:00:00 11.1 6 Noroeste 17 Oeste 0 954.1 0.7 67
2019-11-29 17:00:00 12.8 5 Noroeste 25 Oeste 0 953.7 0.7 61
2019-11-29 16:00:00 14.2 10 Oeste 28 Oeste 0 953.2 -0.5 57
2019-11-29 15:00:00 14.7 11 Oeste 31 Sudoeste 0 953.4 -0.3 55
2019-11-29 14:00:00 15.1 13 Oeste 32 Oeste 0 953 -0.5 56
2019-11-29 13:00:00 14.9 11 Oeste 31 Oeste 0 953.7 1.1 59
2019-11-29 12:00:00 15 10 Oeste 24 Noroeste 0 953.7 1.8 59
2019-11-29 11:00:00 13 10 Oeste 28 Sudoeste 0 953.5 2.3 77
2019-11-29 10:00:00 11 7 Oeste 20 Oeste 0 952.6 2.1 87
2019-11-29 09:00:00 9.6 4 Oeste 13 Oeste 0 951.9 1.7 96
2019-11-29 08:00:00 9.6 6 Oeste 17 Noroeste 0 951.2 1.3 95
2019-11-29 07:00:00 9.6 6 Oeste 13 Noroeste 0 950.5 0.8 96
2019-11-29 06:00:00 9.7 5 Oeste 12 Sudoeste 0 950.2 0.7 93
2019-11-29 05:00:00 10.1 6 Oeste 13 Oeste 0 949.9 0.8 91
2019-11-29 04:00:00 10.3 3 Noroeste 8 Oeste 0 949.7 0.6 88
2019-11-29 03:00:00 10.1 2 Noroeste 10 Oeste 0 949.5 0.2 87
2019-11-29 02:00:00 9.5 2 Sudoeste 5 Sudoeste 0 949.1 -0.4 89
2019-11-29 01:00:00 10.1 3 Sudoeste 8 Oeste 0 949.1 -0.3 84
2019-11-29 00:00:00 10.6 3 Oeste 11 Oeste 0 949.3 0.1 83
2019-11-28 23:00:00 11.1 4 Oeste 12 Oeste 0 949.5 0.5 82
2019-11-28 22:00:00 11.1 3 Noroeste 9 Noroeste 0 949.4 0.9 83
2019-11-28 21:00:00 10.9 4 Noroeste 17 Noroeste 0.2 949.2 1.1 84
2019-11-28 20:00:00 11.4 5 Oeste 17 Oeste 0.2 949 0.5 83
2019-11-28 19:00:00 11.9 4 Oeste 15 Noroeste 0 948.5 0.2 81
2019-11-28 18:00:00 11.9 6 Oeste 14 Sudoeste 0 948.1 -0.3 80
2019-11-28 17:00:00 12.7 0 Calma 8 Noroeste 0 948.5 -0.1 81
2019-11-28 16:00:00 13.2 4 Noroeste 9 Noroeste 0 948.3 -0.4 79
2019-11-28 15:00:00 13.8 4 Oeste 14 Noroeste 0 948.4 -1.1 72
2019-11-28 14:00:00 14.2 5 Oeste 20 Oeste 0 948.6 -1 71
2019-11-28 13:00:00 13.8 8 Oeste 23 Oeste 0 948.7 -0.4 74
2019-11-28 12:00:00 12.8 8 Oeste 16 Oeste 0 949.5 1.3 77
2019-11-28 11:00:00 11.7 6 Sudoeste 12 Sudoeste 0 949.6 2.1 84
2019-11-28 10:00:00 10.2 6 Oeste 12 Oeste 0 949.1 2.1 86
2019-11-28 09:00:00 8.4 4 Noroeste 10 Oeste 0 948.2 1.7 89
2019-11-28 08:00:00 8.2 4 Oeste 9 Oeste 0 947.5 1.3 90
2019-11-28 07:00:00 8.2 3 Oeste 11 Noroeste 0 947 1 90
2019-11-28 06:00:00 8.3 3 Noroeste 9 Oeste 0 946.5 0.5 91
2019-11-28 05:00:00 8.5 4 Oeste 8 Noroeste 0 946.2 0 90
2019-11-28 04:00:00 8.2 4 Oeste 10 Oeste 0 946 -0.2 93
2019-11-28 03:00:00 8.3 3 Oeste 8 Oeste 0 946 -0.2 90
2019-11-28 02:00:00 8.9 3 Oeste 8 Noroeste 0 946.2 0.2 90
2019-11-28 01:00:00 8.9 5 Oeste 8 Oeste 0 946.2 0.3 90
2019-11-28 00:00:00 9.2 2 Oeste 6 Oeste 0 946.2 0.3 90
2019-11-27 23:00:00 9.3 0 Calma 5 Sudoeste 0.2 946 0 91
2019-11-27 22:00:00 9.6 3 Oeste 11 Norte 0.2 945.9 0.2 87
2019-11-27 21:00:00 10.2 4 Norte 11 Noroeste 0.2 945.9 0.4 84
2019-11-27 20:00:00 10.4 5 Noroeste 13 Norte 0 946 0.9 78
2019-11-27 19:00:00 10.4 2 Norte 9 Oeste 0 945.7 1.1 80
2019-11-27 18:00:00 10.9 4 Noroeste 10 Noroeste 0 945.5 1 72
2019-11-27 17:00:00 11.9 3 Oeste 17 Oeste 0 945.1 0.7 71
2019-11-27 16:00:00 13 7 Oeste 23 Noroeste 0 944.6 0 65
2019-11-27 15:00:00 12.8 7 Oeste 20 Oeste 0 944.5 -0.4 68
2019-11-27 14:00:00 13.1 6 Oeste 23 Sudoeste 0 944.4 -0.7 69
2019-11-27 06:00:00 8.7 6 Oeste 17 Oeste 0 941.7 0.5 98
2019-11-27 05:00:00 9.2 5 Noroeste 16 Sudoeste 0.2 941.2 0.4 98
2019-11-27 04:00:00 9.9 5 Oeste 9 Oeste 0 941 -0.3 99
2019-11-27 03:00:00 10.2 0 Calma 9 Nordeste 0.8 941.2 -0.7 98
2019-11-27 02:00:00 10.5 3 Nordeste 10 Nordeste 1.8 940.8 -1.5 99
2019-11-27 01:00:00 10.4 6 Este 13 Sudeste 3.6 941.3 -1.5 99
2019-11-27 00:00:00 10.3 7 Este 13 Este 2.8 941.9 -1.5 97
2019-11-26 23:00:00 10.2 10 Este 14 Nordeste 0.2 942.3 -1.6 94
2019-11-26 22:00:00 10.2 10 Este 17 Este 0 942.8 -1.1 93
2019-11-26 21:00:00 10.3 12 Este 15 Este 0 943.4 -0.3 94
2019-11-26 20:00:00 10.7 8 Este 12 Este 0.4 943.9 -0.1 91
2019-11-26 19:00:00 11.3 5 Sur 12 Este 0 943.9 -0.9 83
2019-11-26 18:00:00 11.6 8 Este 15 Este 0 943.7 -1.6 81
2019-11-26 17:00:00 12.9 8 Este 14 Este 0 944 -1.9 79
2019-11-26 16:00:00 13.7 3 Nordeste 9 Este 0 944.8 -1.8 73
2019-11-26 15:00:00 13.8 4 Sudeste 9 Sur 0 945.3 -1.9 73
2019-11-26 14:00:00 13.2 4 Este 10 Sudeste 0 945.9 -2 76
2019-11-26 13:00:00 12.2 3 Noroeste 10 Noroeste 0 946.6 -1.2 83
2019-11-26 12:00:00 12.4 5 Sur 13 Sur 0 947.2 -0.2 81
2019-11-26 11:00:00 10.4 4 Sur 9 Sudoeste 0 947.9 0.8 90
2019-11-26 10:00:00 8.2 2 Nordeste 7 Noroeste 0 947.8 0.4 99
2019-11-26 09:00:00 6.7 4 Este 8 Norte 0 947.4 -0.1 100
2019-11-26 08:00:00 5.9 0 Calma 8 Nordeste 0 947.1 -0.6 97
2019-11-26 07:00:00 6.2 5 Nordeste 9 Nordeste 0 947.4 -0.7 94
2019-11-26 06:00:00 6.3 6 Nordeste 10 Este 0 947.5 -0.9 96
2019-11-26 05:00:00 6.5 7 Este 9 Este 0 947.7 -0.7 93
2019-11-26 04:00:00 7 7 Nordeste 9 Nordeste 0 948.1 -0.4 93
2019-11-26 03:00:00 7.2 3 Noroeste 8 Noroeste 0 948.4 -0.4 97
2019-11-26 02:00:00 7.7 3 Oeste 7 Sur 0 948.4 -0.6 98
2019-11-26 01:00:00 8 4 Sudeste 9 Sudoeste 0 948.5 -0.6 93
2019-11-26 00:00:00 8.8 4 Oeste 9 Oeste 0 948.8 0 94
2019-11-25 23:00:00 9.1 3 Oeste 8 Noroeste 0 949 0.6 93
2019-11-25 22:00:00 9.7 6 Sudoeste 11 Sudoeste 0 949.1 1 93
2019-11-25 21:00:00 10.2 4 Noroeste 8 Noroeste 0 948.8 1.1 88
2019-11-25 20:00:00 10.3 4 Oeste 11 Oeste 0 948.4 1.4 90
2019-11-25 19:00:00 10.8 4 Oeste 12 Oeste 0 948.1 1.2 88
2019-11-25 18:00:00 11.9 4 Oeste 13 Oeste 0 947.7 1.1 84
2019-11-25 17:00:00 14.1 6 Oeste 21 Noroeste 0 947 0.6 73
2019-11-25 16:00:00 15 8 Noroeste 26 Noroeste 0 946.9 0.4 67
2019-11-25 15:00:00 15 10 Oeste 27 Oeste 0 946.6 -0.1 73
2019-11-25 14:00:00 15.4 7 Oeste 24 Oeste 0 946.4 -0.7 74
2019-11-25 13:00:00 14.4 7 Oeste 24 Oeste 0 946.5 -0.3 78
2019-11-25 12:00:00 12.8 9 Oeste 20 Oeste 0 946.7 0.2 82
2019-11-25 11:00:00 9.8 6 Oeste 15 Sudoeste 0 947.1 1.2 87
2019-11-25 10:00:00 7.8 7 Noroeste 14 Noroeste 0 946.8 1 90
2019-11-25 09:00:00 6.6 6 Noroeste 14 Noroeste 0 946.5 1.2 92
2019-11-25 08:00:00 6.6 6 Noroeste 11 Noroeste 0 945.9 0.3 91
2019-11-25 07:00:00 6.4 5 Oeste 9 Noroeste 0 945.8 -0.1 93
2019-11-25 06:00:00 6.3 4 Noroeste 9 Noroeste 0 945.3 -0.4 93
2019-11-25 05:00:00 5.9 3 Oeste 11 Oeste 0 945.6 -0.5 95
2019-11-25 04:00:00 5.6 5 Oeste 12 Noroeste 0 945.9 -0.7 96
2019-11-25 03:00:00 5.9 6 Noroeste 17 Oeste 0 945.7 -1.3 94
2019-11-25 02:00:00 5.3 7 Noroeste 15 Noroeste 0.2 946.1 -0.9 97
2019-11-25 01:00:00 5.6 5 Oeste 14 Sudoeste 1 946.6 0.1 95
2019-11-25 00:00:00 6.4 5 Oeste 19 Noroeste 0 947 0.7 87
2019-11-24 23:00:00 6.3 8 Noroeste 19 Noroeste 0 947 0.6 88
2019-11-24 22:00:00 5.3 6 Noroeste 12 Noroeste 0 946.5 0.5 90
2019-11-24 21:00:00 5.5 4 Noroeste 14 Noroeste 0 946.3 0.6 89
2019-11-24 20:00:00 6.1 5 Oeste 14 Noroeste 0 946.4 1 86
2019-11-24 19:00:00 6.7 4 Noroeste 15 Oeste 0 946 1 83
2019-11-24 18:00:00 7.9 6 Oeste 23 Oeste 0 945.7 0.7 79
2019-11-24 17:00:00 9.6 8 Oeste 26 Oeste 0 945.4 0.6 72
2019-11-24 16:00:00 10.3 9 Noroeste 30 Noroeste 0 945 -0.3 70
2019-11-24 15:00:00 10.6 12 Oeste 30 Sudoeste 0 945 0.1 68
2019-11-24 14:00:00 11.3 13 Noroeste 37 Norte 0 944.8 -0.7 66
2019-11-24 13:00:00 10.9 11 Oeste 35 Oeste 0 945.3 0.6 68
2019-11-24 12:00:00 10.2 15 Oeste 43 Noroeste 0 944.9 0.1 69
2019-11-24 11:00:00 8.7 13 Noroeste 38 Oeste 0 945.5 1 79
2019-11-24 10:00:00 7.4 15 Oeste 37 Oeste 0 944.7 1 79
2019-11-24 09:00:00 6.3 12 Noroeste 33 Noroeste 0 944.8 1.3 80
2019-11-24 08:00:00 5.3 8 Noroeste 25 Noroeste 0 944.5 1.7 85
2019-11-24 07:00:00 5 7 Noroeste 23 Oeste 0 943.7 1 88
2019-11-24 06:00:00 5.3 8 Oeste 27 Noroeste 0 943.5 1.4 88
2019-11-24 05:00:00 5.5 11 Oeste 33 Oeste 0 942.8 1.5 87
2019-11-24 04:00:00 5.4 9 Oeste 25 Oeste 0 942.7 1.2 88
2019-11-24 03:00:00 5.4 12 Oeste 32 Oeste 0 942.1 1.4 89
2019-11-24 02:00:00 5.3 12 Oeste 29 Oeste 0 941.3 1.2 91
2019-11-24 01:00:00 5 8 Oeste 27 Oeste 0 941.5 2.3 92
2019-11-24 00:00:00 5.5 12 Oeste 29 Noroeste 0 940.7 2.6 90
2019-11-23 23:00:00 5.7 13 Oeste 35 Oeste 0 940.1 2.3 88
2019-11-23 22:00:00 5.8 12 Oeste 35 Noroeste 0 939.2 2 88
2019-11-23 21:00:00 6 13 Oeste 36 Oeste 0 938.1 2.2 86
2019-11-23 20:00:00 6 11 Oeste 29 Oeste 0 937.8 2.9 86
2019-11-23 19:00:00 6.2 10 Oeste 32 Sudoeste 0 937.2 2.9 86
2019-11-23 18:00:00 7 15 Oeste 37 Oeste 0 935.9 3 80
2019-11-23 17:00:00 8.2 14 Oeste 36 Oeste 0 934.9 2.5 81
2019-11-23 16:00:00 7.6 14 Oeste 36 Oeste 0 934.3 2.4 87
2019-11-23 15:00:00 8.3 15 Oeste 44 Noroeste 0 932.9 1.3 85
2019-11-23 14:00:00 8.1 15 Oeste 42 Sudoeste 0 932.4 1.4 83
2019-11-23 13:00:00 8 17 Oeste 44 Sudoeste 0 931.9 1.8 84
2019-11-23 12:00:00 7.8 15 Oeste 41 Oeste 0 931.6 2.9 87
2019-11-23 11:00:00 6.7 13 Oeste 30 Oeste 0 931 3.8 95
2019-11-23 10:00:00 6 8 Oeste 30 Oeste 1 930.1 3.8 98
2019-11-23 09:00:00 5.8 12 Noroeste 30 Norte 1 928.7 2.7 96
2019-11-23 08:00:00 5.6 4 Oeste 17 Oeste 0 927.2 1.1 99
2019-11-23 07:00:00 5.9 3 Sudoeste 11 Oeste 0 926.3 0.3 98
2019-11-23 06:00:00 6.3 4 Sudeste 9 Este 0 926 0 99
2019-11-23 05:00:00 6.5 5 Este 8 Nordeste 0 926.1 -0.1 98
2019-11-23 04:00:00 6.6 4 Este 6 Este 0 926 -0.6 100
2019-11-23 03:00:00 6.2 6 Este 8 Sudeste 0 926 -0.4 100
2019-11-23 02:00:00 6.3 5 Este 9 Nordeste 0 926.2 -0.5 99
2019-11-23 01:00:00 6.1 4 Sudeste 11 Sudeste 0 926.6 -0.2 98
2019-11-23 00:00:00 7.1 5 Nordeste 9 Este 0.2 926.4 -1 98
2019-11-22 23:00:00 7.9 3 Norte 33 Sur 5.8 926.7 -1.6 96
2019-11-22 22:00:00 9.4 17 Sudeste 36 Sudeste 1 926.8 -2.6 100
2019-11-22 21:00:00 9.1 24 Este 40 Sudeste 0.6 927.4 -2.4 100
2019-11-22 20:00:00 8.7 24 Sudeste 37 Sudeste 1.8 928.3 -2.3 100
2019-11-22 19:00:00 8.5 23 Sudeste 46 Este 1 929.4 -1.9 100
2019-11-22 18:00:00 8.5 24 Sudeste 43 Sudeste 1.4 929.8 -2.5 100
2019-11-22 17:00:00 8.4 19 Este 38 Este 1.4 930.6 -3.5 100
2019-11-22 16:00:00 8.1 21 Este 41 Este 0.8 931.3 -4 99
2019-11-22 15:00:00 7.8 23 Este 36 Este 0.4 932.3 -4.7 97
2019-11-22 14:00:00 7.7 17 Este 30 Este 0.6 934.1 -4.1 94
2019-11-22 13:00:00 7.5 15 Este 27 Este 0.8 935.3 -3.5 92
2019-11-22 12:00:00 8.1 17 Este 28 Este 0.2 937 -2.3 83
2019-11-22 11:00:00 8.3 15 Este 24 Este 0 938.2 -1.2 77
2019-11-22 10:00:00 7.8 15 Este 24 Este 0 938.8 -1.3 78
2019-11-22 09:00:00 6.8 12 Este 23 Este 0 939.3 -1.2 82
2019-11-22 08:00:00 6.1 14 Este 19 Este 0 939.4 -1.6 86
2019-11-22 07:00:00 5.6 11 Este 16 Sudeste 0 940.1 -1.1 88
2019-11-22 06:00:00 5.8 10 Sudeste 14 Sudeste 0 940.5 -1.1 87
2019-11-22 05:00:00 5.3 9 Este 14 Este 0 941 -1.2 87
2019-11-22 04:00:00 5.6 8 Este 16 Este 0 941.2 -1.6 85
2019-11-22 03:00:00 5.9 10 Este 15 Este 0 941.6 -1.4 85
2019-11-22 02:00:00 5.8 10 Este 16 Este 0 942.2 -1.2 86
2019-11-22 01:00:00 5.7 10 Este 15 Este 0 942.8 -0.7 87
2019-11-22 00:00:00 5.5 9 Este 13 Este 0 943 0 88
2019-11-21 23:00:00 5.6 8 Este 10 Este 0 943.4 0.4 87
2019-11-21 22:00:00 6.4 7 Este 10 Nordeste 0 943.5 0.8 86
2019-11-21 21:00:00 6.3 6 Este 9 Este 0 943 0.5 86
2019-11-21 20:00:00 6.5 6 Este 9 Este 0 943 0.6 85
2019-11-21 19:00:00 6.8 4 Este 6 Este 0 942.7 0.6 82
2019-11-21 18:00:00 7.6 4 Nordeste 5 Nordeste 0 942.5 0.4 78
2019-11-21 17:00:00 9.3 0 Calma 3 Norte 0 942.4 0 75
2019-11-21 16:00:00 9.6 2 Nordeste 12 Sudoeste 0 942.1 -0.8 70
2019-11-21 15:00:00 10.3 5 Sur 16 Oeste 0 942.1 -1 68
2019-11-21 14:00:00 10.1 4 Sudoeste 12 Oeste 0 942.4 -1.2 69
2019-11-21 13:00:00 9.8 6 Oeste 12 Oeste 0 942.9 -0.5 68
2019-11-21 12:00:00 9.2 4 Oeste 10 Sudoeste 0 943.1 -0.1 73
2019-11-21 11:00:00 7.6 3 Sudeste 5 Este 0 943.6 0.8 85
2019-11-21 10:00:00 6.1 4 Sudeste 9 Este 0 943.4 0.8 95
2019-11-21 09:00:00 4.9 4 Sudeste 6 Sudeste 0 943.2 0.7 98
2019-11-21 08:00:00 4.3 3 Nordeste 6 Noroeste 0 942.8 0.4 94
2019-11-21 07:00:00 5.2 3 Norte 6 Este 0 942.6 0 93
2019-11-21 06:00:00 5.4 2 Sur 9 Nordeste 0 942.5 -0.3 93
2019-11-21 05:00:00 5.4 6 Nordeste 12 Este 0 942.4 -0.7 93
2019-11-21 04:00:00 5.2 8 Este 12 Este 0 942.6 -0.7 94
2019-11-21 03:00:00 5 8 Este 12 Este 0.2 942.8 -0.9 94
2019-11-21 02:00:00 5.4 5 Este 12 Este 0.4 943.1 -0.8 92
2019-11-21 01:00:00 5.3 8 Este 12 Este 0.4 943.3 -0.5 90
2019-11-21 00:00:00 5.9 6 Este 12 Este 0 943.7 -0.1 79
2019-11-20 23:00:00 6.2 7 Este 18 Este 0 943.9 0 70
2019-11-20 22:00:00 6.3 11 Este 19 Este 0 943.8 0.1 70
2019-11-20 21:00:00 5.7 10 Este 17 Este 0 943.8 -0.1 75
2019-11-20 20:00:00 5.1 10 Este 15 Este 0 943.9 -- 80
2019-11-20 19:00:00 4.9 10 Este 14 Este 0 943.7 -0.5 80
2019-11-20 18:00:00 5.7 9 Este 12 Sudeste 0 943.9 -0.5 73
2019-11-20 17:00:00 7.7 8 Sudeste 15 Sudeste 0 944.2 -1 66
2019-11-20 16:00:00 8.8 10 Este 18 Sudeste 0 944.2 -1.8 62
2019-11-20 15:00:00 8.8 11 Sudeste 18 Sudeste 0 944.4 -2.4 64
2019-11-20 14:00:00 8.8 11 Sudeste 20 Sudeste 0 945.2 -2.1 65
2019-11-20 13:00:00 8.4 8 Sudeste 19 Sudeste 0 946 -1.2 66
2019-11-20 12:00:00 8.2 12 Este 19 Sudeste 0 946.8 -0.5 65
2019-11-20 11:00:00 7 9 Sudeste 17 Este 0 947.3 0.1 70
2019-11-20 10:00:00 3.6 10 Este 16 Este 0 947.2 0 82
2019-11-20 09:00:00 1.2 10 Este 13 Este 0 947.3 0.1 89
2019-11-20 08:00:00 1.4 7 Este 9 Este 0 947.2 -0.2 86
2019-11-20 07:00:00 2.3 6 Nordeste 13 Nordeste 0 947.2 -0.7 83
2019-11-20 06:00:00 1.8 7 Este 11 Este 0 947.2 -0.7 87
2019-11-20 05:00:00 1.6 8 Este 14 Este 0 947.4 -1.3 88
2019-11-20 04:00:00 1.1 7 Este 17 Este 0 947.9 -1.2 87
2019-11-20 03:00:00 1.8 11 Este 18 Este 0 947.9 -1.4 84
2019-11-20 02:00:00 2.2 8 Este 13 Este 0 948.7 -0.7 83
2019-11-20 01:00:00 2 8 Este 14 Este 0 949.1 -0.2 84
2019-11-20 00:00:00 1.9 8 Este 13 Este 0 949.3 0.2 85
2019-11-19 23:00:00 1.9 9 Este 13 Este 0 949.4 0.4 85
2019-11-19 22:00:00 2.4 9 Este 13 Nordeste 0 949.3 0.5 83
2019-11-19 21:00:00 3 10 Este 14 Este 0 949.1 0.2 81
2019-11-19 20:00:00 3.4 2 Este 6 Nordeste 0 949 0 81
2019-11-19 19:00:00 4 2 Oeste 6 Oeste 0 948.8 -0.1 80
2019-11-19 18:00:00 5.4 3 Sudoeste 7 Oeste 0 948.9 0.1 71
2019-11-19 17:00:00 8 2 Sudoeste 14 Oeste 0 949 -0.4 60
2019-11-19 16:00:00 8.9 5 Oeste 14 Oeste 0 948.9 -0.8 56
2019-11-19 15:00:00 9 6 Oeste 16 Oeste 0 948.8 -1.4 57
2019-11-19 14:00:00 9 6 Sudoeste 17 Oeste 0 949.4 -1.3 54
2019-11-19 13:00:00 8.5 6 Oeste 12 Oeste 0 949.7 -0.9 53
2019-11-19 12:00:00 6.5 3 Este 10 Sudoeste 0 950.2 -0.1 70
2019-11-19 11:00:00 4.7 5 Sudoeste 9 Sudoeste 0 950.7 1 75
2019-11-19 10:00:00 1.7 4 Sudoeste 11 Sur 0 950.6 1.1 81
2019-11-19 09:00:00 -0.4 5 Sur 9 Nordeste 0 950.3 1.2 81
2019-11-19 08:00:00 -1.1 9 Nordeste 14 Nordeste 0 949.7 0.6 82
2019-11-19 07:00:00 -2.2 3 Sudeste 5 Sudeste 0 949.5 0.5 88
2019-11-19 06:00:00 -1.6 2 Nordeste 8 Oeste 0 949.1 -0.2 83
2019-11-19 05:00:00 -0.1 5 Oeste 8 Noroeste 0 949.1 -0.1 81
2019-11-19 04:00:00 -0.1 3 Norte 10 Norte 0 949 -0.2 76
2019-11-19 03:00:00 -0.2 4 Norte 9 Oeste 0 949.3 0.3 80
2019-11-19 02:00:00 0.5 8 Oeste 13 Oeste 0 949.2 0 82
2019-11-19 01:00:00 1 5 Oeste 11 Oeste 0 949.2 0.6 76
2019-11-19 00:00:00 1.4 6 Noroeste 12 Oeste 0 949 0.5 74
2019-11-18 23:00:00 1.3 5 Oeste 11 Oeste 0 949.2 1.3 76
2019-11-18 22:00:00 1.5 6 Oeste 13 Oeste 0 948.6 1.1 77
2019-11-18 21:00:00 2 5 Oeste 14 Oeste 0 948.5 1.4 74
2019-11-18 20:00:00 2.4 5 Oeste 13 Oeste 0 947.9 1.1 74
2019-11-18 19:00:00 3.9 5 Oeste 13 Oeste 0 947.5 1.1 70
2019-11-18 18:00:00 5.8 8 Noroeste 18 Norte 0 947.1 1.1 63
2019-11-18 17:00:00 7.9 6 Oeste 18 Oeste 0 946.8 0.9 61
2019-11-18 16:00:00 9.3 6 Oeste 21 Norte 0 946.4 0.7 54
2019-11-18 15:00:00 9.3 6 Noroeste 22 Noroeste 0 946 0.2 58
2019-11-18 14:00:00 10.8 5 Noroeste 13 Noroeste 0 945.9 0.4 55
2019-11-18 13:00:00 10.1 4 Norte 11 Noroeste 0 945.7 1 54
2019-11-18 12:00:00 9.3 4 Sudoeste 10 Sur 0 945.8 1.9 63
2019-11-18 11:00:00 7.4 5 Sudoeste 8 Sudoeste 0 945.5 2.1 76
2019-11-18 10:00:00 5.1 5 Norte 20 Noroeste 0 944.7 1.5 77
2019-11-18 09:00:00 3.8 6 Noroeste 16 Noroeste 0 943.9 1.1 86
2019-11-18 08:00:00 2.9 5 Sudoeste 16 Sudoeste 0 943.4 0.5 99
2019-11-18 07:00:00 3.3 5 Oeste 11 Oeste 0 943.2 0.3 98
2019-11-18 06:00:00 4.5 5 Oeste 11 Noroeste 0 942.8 -0.1 100
2019-11-18 05:00:00 4.8 4 Oeste 13 Noroeste 0 942.9 0.2 100
2019-11-18 04:00:00 4.7 6 Oeste 15 Oeste 0 942.9 -0.1 100
2019-11-18 03:00:00 4.1 4 Oeste 14 Noroeste 0 942.9 -0.2 100
2019-11-18 02:00:00 4.4 6 Noroeste 15 Noroeste 0 942.7 -0.2 100
2019-11-18 01:00:00 4.7 4 Oeste 13 Oeste 0 943 -0.1 100
2019-11-18 00:00:00 5 6 Oeste 15 Noroeste 0 943.1 -0.3 100
2019-11-17 23:00:00 4.8 2 Noroeste 10 Noroeste 0 942.9 -0.4 99
2019-11-17 22:00:00 5.1 3 Oeste 13 Sudoeste 0 943.1 -0.1 98
2019-11-17 21:00:00 5.5 6 Oeste 12 Oeste 0 943.4 0.3 98
2019-11-17 20:00:00 5.7 4 Oeste 16 Noroeste 0 943.3 -0.2 95
2019-11-17 19:00:00 5.8 5 Oeste 16 Noroeste 0 943.2 -0.2 95
2019-11-17 18:00:00 6.2 5 Oeste 19 Oeste 0 943.1 -0.3 91
2019-11-17 17:00:00 6.9 6 Oeste 17 Noroeste 0 943.5 -0.2 85
2019-11-17 16:00:00 7.3 7 Oeste 20 Sudoeste 0 943.4 -0.7 84
2019-11-17 15:00:00 7.7 6 Oeste 21 Noroeste 0 943.4 -1.4 80
2019-11-17 14:00:00 8.5 9 Oeste 25 Noroeste 0 943.7 -1.2 77
2019-11-17 13:00:00 8.4 10 Oeste 24 Oeste 0 944.1 -0.7 79
2019-11-17 12:00:00 7.7 8 Oeste 23 Oeste 0 944.8 0 82
2019-11-17 11:00:00 7.1 8 Oeste 21 Noroeste 0 944.9 0.1 87
2019-11-17 10:00:00 3.9 6 Oeste 17 Oeste 0 944.8 0.1 96
2019-11-17 09:00:00 2.8 8 Sudoeste 16 Oeste 0 944.8 0 96
2019-11-17 08:00:00 1.9 4 Oeste 15 Oeste 0 944.8 0.2 97
2019-11-17 07:00:00 1.2 6 Oeste 17 Sudoeste 0 944.7 -0.6 97
2019-11-17 06:00:00 1.5 6 Oeste 17 Oeste 0 944.8 -0.5 97
2019-11-17 05:00:00 1.8 5 Oeste 20 Oeste 0 944.6 -0.6 94
2019-11-17 04:00:00 2.2 6 Oeste 29 Sudoeste 0 945.3 -0.2 91
2019-11-17 03:00:00 3 10 Oeste 33 Oeste 0 945.3 -0.8 89
2019-11-17 02:00:00 3.1 10 Oeste 32 Oeste 0 945.2 -1.1 90
2019-11-17 01:00:00 2.5 9 Oeste 26 Oeste 0 945.5 -1.2 93
2019-11-17 00:00:00 2.6 10 Oeste 23 Sudoeste 0 946.1 -0.6 94
2019-11-16 23:00:00 2.6 9 Oeste 23 Oeste 0 946.3 -0.4 96
2019-11-16 22:00:00 1.9 5 Oeste 21 Oeste 0 946.7 -0.1 98
2019-11-16 21:00:00 2.1 5 Noroeste 17 Oeste 0 946.7 -0.1 98
2019-11-16 20:00:00 2.3 9 Oeste 22 Sudoeste 0 946.7 -0.3 97
2019-11-16 19:00:00 2.4 5 Oeste 15 Oeste 0 946.8 -0.3 96
2019-11-16 18:00:00 2.6 6 Oeste 18 Oeste 0 946.8 -0.3 96
2019-11-16 17:00:00 3.4 7 Oeste 21 Noroeste 0.2 947 -0.1 97
2019-11-16 16:00:00 3.6 7 Oeste 16 Noroeste 0.4 947.1 0.1 97
2019-11-16 15:00:00 3.5 5 Noroeste 21 Noroeste 1 947.1 -0.3 94
2019-11-16 14:00:00 4.3 5 Noroeste 11 Oeste 0.2 947.1 -0.1 87
2019-11-16 13:00:00 4.4 5 Noroeste 9 Oeste 0 947 0.5 80
2019-11-16 12:00:00 1.9 6 Este 9 Este 0 947.4 1.3 95
2019-11-16 11:00:00 0.2 9 Este 18 Este 0 947.2 2.2 98
2019-11-16 10:00:00 -0.5 14 Este 20 Sudeste 0 946.5 2.7 95
2019-11-16 09:00:00 -0.7 10 Este 17 Este 0 946.1 3 96
2019-11-16 08:00:00 -1.2 5 Norte 10 Norte 0 945 2.1 96
2019-11-16 07:00:00 -0.9 4 Noroeste 10 Noroeste 0 943.8 1.4 95
2019-11-16 06:00:00 -0.8 5 Noroeste 10 Noroeste 0 943.1 1.1 96
2019-11-16 05:00:00 -0.6 6 Oeste 10 Sudoeste 0 942.9 1.2 96
2019-11-16 04:00:00 -0.1 5 Noroeste 11 Oeste 0 942.4 1.5 97
2019-11-16 03:00:00 0 5 Oeste 12 Oeste 0 942 1.8 97
2019-11-16 02:00:00 0.3 8 Sudoeste 15 Oeste 0 941.7 1.9 98
2019-11-16 01:00:00 0.6 4 Sudoeste 15 Sudoeste 0 940.9 1.2 94
2019-11-16 00:00:00 1.3 6 Oeste 26 Norte 0 940.2 1 91
2019-11-15 23:00:00 1.6 11 Noroeste 21 Noroeste 0 939.8 1.4 96
2019-11-15 22:00:00 1.9 6 Noroeste 18 Noroeste 0 939.7 2.3 96
2019-11-15 21:00:00 2.5 7 Oeste 19 Noroeste 0 939.2 2.4 94
2019-11-15 20:00:00 2.9 8 Oeste 17 Oeste 0 938.4 2 84
2019-11-15 19:00:00 3.3 6 Oeste 19 Noroeste 0 937.4 1.7 86
2019-11-15 18:00:00 4.4 8 Oeste 25 Oeste 0 936.8 1.5 83
2019-11-15 17:00:00 6.3 10 Oeste 30 Oeste 0 936.4 0.7 80
2019-11-15 16:00:00 6.7 12 Oeste 33 Oeste 0 935.7 -0.1 79
2019-11-15 15:00:00 6.1 12 Oeste 36 Noroeste 0 935.3 -1.4 85
2019-11-15 14:00:00 5.1 10 Oeste 32 Sudoeste 0.4 935.7 -1 87
2019-11-15 13:00:00 5.3 7 Oeste 18 Sudoeste 0 935.8 -0.5 84
2019-11-15 12:00:00 4.5 7 Oeste 19 Noroeste 0 936.7 0.4 86
2019-11-15 11:00:00 4.6 6 Oeste 18 Oeste 0 936.7 1 87
2019-11-15 10:00:00 2.8 5 Noroeste 13 Noroeste 0 936.3 0.9 91
2019-11-15 09:00:00 0.7 4 Noroeste 14 Oeste 0 936.3 0.9 94
2019-11-15 08:00:00 0.1 3 Noroeste 12 Noroeste 0 935.7 0.6 93
2019-11-15 07:00:00 0.2 4 Noroeste 8 Noroeste 0 935.4 0.4 94
2019-11-15 06:00:00 0.5 5 Oeste 10 Sudoeste 0 935.4 0.6 95
2019-11-15 05:00:00 0.7 4 Oeste 10 Oeste 0 935.1 0.5 93
2019-11-15 04:00:00 0.8 5 Oeste 10 Oeste 0 935 0.6 92
2019-11-15 03:00:00 1.4 4 Noroeste 11 Noroeste 0 934.8 0.8 86
2019-11-15 02:00:00 2.3 4 Oeste 10 Oeste 0 934.6 0.9 86
2019-11-15 01:00:00 3 4 Oeste 9 Oeste 0 934.4 1 82
2019-11-15 00:00:00 2.9 4 Noroeste 9 Oeste 0 934 0.6 82
2019-11-14 23:00:00 3.3 4 Sudoeste 12 Sudoeste 0 933.7 0.5 81
2019-11-14 22:00:00 3.2 3 Norte 11 Norte 0 933.4 0.1 78
2019-11-14 21:00:00 3.1 4 Sudoeste 8 Sudoeste 0 933.4 0.3 84
2019-11-14 20:00:00 2.8 4 Nordeste 8 Nordeste 0 933.2 0.6 80
2019-11-14 19:00:00 3.7 2 Norte 9 Oeste 0 933.3 0.8 80
2019-11-14 18:00:00 5.7 5 Oeste 14 Oeste 0 933.1 0.3 77
2019-11-14 17:00:00 7 7 Noroeste 22 Oeste 0 932.6 -0.5 61
2019-11-14 16:00:00 8.1 10 Oeste 27 Oeste 0 932.5 -0.8 62
2019-11-14 15:00:00 8.3 12 Noroeste 33 Noroeste 0 932.8 -1.7 59
2019-11-14 14:00:00 8.4 12 Noroeste 36 Oeste 0 933.1 -1.8 65
2019-11-14 13:00:00 7.6 13 Oeste 31 Noroeste 0 933.3 -1.7 72
2019-11-14 12:00:00 6.2 9 Oeste 25 Oeste 0 934.5 -0.9 88
2019-11-14 11:00:00 4.2 10 Oeste 29 Oeste 0 934.9 -0.1 94
2019-11-14 10:00:00 4.2 6 Oeste 22 Oeste 0 935 0.1 92
2019-11-14 09:00:00 4.3 6 Noroeste 31 Oeste 1 935.4 -0.6 91
2019-11-14 08:00:00 5.4 6 Sur 20 Oeste 1.2 935 -1.9 98
2019-11-14 07:00:00 5 11 Este 15 Este 1.2 934.9 -3 97
2019-11-14 06:00:00 5.2 8 Este 11 Este 0.8 936 -3 93
2019-11-14 05:00:00 5.8 5 Sudeste 17 Sudeste 0 936.9 -3.2 85
2019-11-14 04:00:00 6.2 9 Este 20 Este 0 937.9 -3 74
2019-11-14 03:00:00 6.2 12 Este 18 Este 0 939 -2.2 76
2019-11-14 02:00:00 5.8 8 Este 13 Nordeste 0 940.1 -2.2 76
2019-11-14 01:00:00 5.4 6 Este 10 Este 0 940.9 -2.5 78
2019-11-14 00:00:00 5 7 Este 9 Sudeste 0 941.2 -2.2 79
2019-11-13 23:00:00 5.8 2 Noroeste 6 Oeste 0 942.3 -2 75
2019-11-13 22:00:00 6.4 2 Sudeste 10 Norte 0 943.4 -1.1 73
2019-11-13 21:00:00 6.2 4 Norte 10 Norte 0 943.4 -1 72
2019-11-13 20:00:00 7.2 7 Norte 21 Noroeste 0 944.3 0.1 68
2019-11-13 19:00:00 7.9 11 Noroeste 25 Noroeste 0 944.5 0.8 65
2019-11-13 18:00:00 9 10 Noroeste 32 Noroeste 0 944.4 1.3 60
2019-11-13 17:00:00 10.5 8 Oeste 39 Noroeste 0 944.2 1.8 59
2019-11-13 16:00:00 11.5 13 Noroeste 42 Noroeste 0 943.7 1.1 53
2019-11-13 15:00:00 12.5 13 Noroeste 44 Noroeste 0 943.1 0 45
2019-11-13 14:00:00 13.6 13 Noroeste 37 Norte 0 942.4 -0.4 47
2019-11-13 13:00:00 14 9 Noroeste 21 Oeste 0 942.6 0.8 54
2019-11-13 12:00:00 12 8 Oeste 16 Oeste 0 943.1 2 74
2019-11-13 11:00:00 9.7 5 Oeste 13 Oeste 0 942.8 2.8 89
2019-11-13 10:00:00 7.1 4 Oeste 9 Noroeste 0 941.8 2.4 96
2019-11-13 09:00:00 6.7 3 Oeste 8 Sudoeste 0 941.1 2.2 96
2019-11-13 08:00:00 6.5 5 Oeste 10 Oeste 0.2 940 1.2 95
2019-11-13 07:00:00 6.6 4 Oeste 8 Oeste 0 939.4 0.3 93
2019-11-13 06:00:00 7.3 4 Noroeste 14 Noroeste 0 938.9 -1.2 88
2019-11-13 05:00:00 6.7 4 Norte 10 Norte 0 938.8 -1.8 90
2019-11-13 04:00:00 6.9 4 Oeste 12 Oeste 0 939.1 -2 89
2019-11-13 03:00:00 6.9 4 Oeste 12 Oeste 0 940.1 -2.2 89
2019-11-13 02:00:00 6.9 4 Noroeste 13 Oeste 0 940.6 -2.4 90
2019-11-13 01:00:00 6.8 4 Oeste 12 Oeste 0 941.1 -2.1 89
2019-11-13 00:00:00 7 5 Oeste 15 Noroeste 0 942.3 -0.6 89
2019-11-12 23:00:00 7.1 4 Oeste 22 Oeste 0 943 -0.5 87
2019-11-12 22:00:00 7.8 8 Oeste 18 Oeste 0 943.2 -0.6 80
2019-11-12 21:00:00 7.6 6 Noroeste 23 Noroeste 0 942.9 -1.1 79
2019-11-12 20:00:00 7.3 7 Noroeste 20 Noroeste 0 943.5 -1.1 82
2019-11-12 19:00:00 7.4 7 Oeste 24 Noroeste 0 943.8 -1 82
2019-11-12 18:00:00 7.9 8 Oeste 26 Oeste 0 944 -1.1 81
2019-11-12 17:00:00 9.4 11 Oeste 34 Noroeste 0 944.6 -0.5 76
2019-11-12 16:00:00 10.8 11 Oeste 35 Oeste 0 944.8 -0.9 68
2019-11-12 15:00:00 11.4 14 Oeste 38 Oeste 0 945.1 -1.6 66
2019-11-12 14:00:00 11.7 15 Oeste 40 Oeste 0 945.1 -1.9 65
2019-11-12 13:00:00 11.1 15 Oeste 36 Oeste 0 945.7 -1.1 71
2019-11-12 12:00:00 10.3 13 Oeste 47 Sudoeste 0 946.7 -0.6 74
2019-11-12 11:00:00 9.1 19 Sudoeste 34 Oeste 0 947 -0.3 79
2019-11-12 10:00:00 7.1 13 Oeste 31 Oeste 0 946.8 -0.6 87
2019-11-12 09:00:00 5.4 10 Noroeste 28 Noroeste 0 947.3 0.1 89
2019-11-12 08:00:00 4.1 5 Noroeste 23 Oeste 0 947.3 0.2 89
2019-11-12 07:00:00 4.3 8 Noroeste 26 Norte 0 947.4 0.1 85
2019-11-12 06:00:00 4.9 7 Norte 25 Oeste 0 947.2 0.1 80
2019-11-12 05:00:00 5.8 5 Norte 19 Oeste 0 947.1 0.1 69
2019-11-12 04:00:00 5.6 6 Noroeste 17 Noroeste 0 947.3 -0.7 69
2019-11-12 03:00:00 6.2 6 Noroeste 33 Noroeste 0 947.1 -0.9 69
2019-11-12 02:00:00 6.5 12 Noroeste 32 Oeste 0 947 -0.5 66
2019-11-12 01:00:00 5.9 10 Noroeste 29 Noroeste 0 948 0.3 72
2019-11-12 00:00:00 5.9 9 Noroeste 36 Norte 0 948 0.8 73
2019-11-11 23:00:00 5.9 10 Noroeste 33 Norte 0 947.5 1 72
2019-11-11 22:00:00 6.9 14 Noroeste 42 Noroeste 0 947.7 1.5 62
2019-11-11 21:00:00 7.5 17 Noroeste 49 Noroeste 0 947.2 1.3 63
2019-11-11 20:00:00 7.6 21 Noroeste 41 Noroeste 0 946.5 0.7 67
2019-11-11 19:00:00 8.2 17 Noroeste 50 Noroeste 0 946.2 -0.1 69
2019-11-11 18:00:00 8 11 Noroeste 50 Noroeste 0 945.9 -0.2 79
2019-11-11 17:00:00 8.7 13 Noroeste 42 Noroeste 0 945.8 -0.2 80
2019-11-11 16:00:00 8.9 14 Oeste 33 Oeste 0 946.3 -0.3 84
2019-11-11 15:00:00 9.4 15 Noroeste 38 Noroeste 0 946.1 -1.4 79
2019-11-11 14:00:00 10.3 14 Oeste 37 Oeste 0 946 -2 72
2019-11-11 13:00:00 10.8 10 Oeste 25 Oeste 0 946.6 -1 65
2019-11-11 12:00:00 8.8 5 Oeste 18 Oeste 0 947.5 -0.6 77
2019-11-11 11:00:00 7.1 6 Oeste 14 Oeste 0 948 0.5 82
2019-11-11 10:00:00 5.1 8 Oeste 14 Oeste 0 947.6 -0.1 90
2019-11-11 09:00:00 4.3 4 Oeste 11 Noroeste 0 948.1 0.4 89
2019-11-11 08:00:00 3.4 5 Oeste 14 Oeste 0 947.5 -0.7 90
2019-11-11 07:00:00 3.1 5 Noroeste 16 Noroeste 0 947.7 -0.2 91
2019-11-11 06:00:00 2.4 6 Oeste 15 Oeste 0 947.7 -0.7 92
2019-11-11 05:00:00 2.1 6 Oeste 16 Noroeste 0 948.2 -0.3 92
2019-11-11 04:00:00 2.5 7 Noroeste 17 Norte 0 947.9 -0.8 86
2019-11-11 03:00:00 1.9 6 Oeste 17 Oeste 0 948.4 -0.4 89
2019-11-11 02:00:00 1.6 6 Noroeste 14 Oeste 0 948.5 0.2 91
2019-11-11 01:00:00 2.1 8 Oeste 15 Oeste 0 948.7 0.6 88
2019-11-11 00:00:00 2.2 5 Noroeste 14 Oeste 0 948.8 1 85
2019-11-10 23:00:00 2 5 Oeste 14 Noroeste 0 948.3 0.7 88
2019-11-10 22:00:00 2.9 5 Oeste 14 Oeste 0 948.1 1.3 80
2019-11-10 21:00:00 3.6 7 Noroeste 27 Noroeste 0 947.8 1.4 78
2019-11-10 20:00:00 4.3 7 Noroeste 24 Noroeste 0 947.6 2 75
2019-11-10 19:00:00 4.4 7 Oeste 22 Oeste 0 946.8 1.5 78
2019-11-10 18:00:00 5.4 8 Noroeste 30 Noroeste 0 946.4 1 75
2019-11-10 17:00:00 6.5 13 Noroeste 37 Oeste 0 945.6 0.2 74
2019-11-10 16:00:00 7.8 14 Oeste 36 Oeste 0 945.3 -0.8 70
2019-11-10 15:00:00 7.8 13 Noroeste 42 Norte 0 945.4 -0.9 69
2019-11-10 14:00:00 7.9 13 Noroeste 35 Oeste 0 945.4 -1.2 70
2019-11-10 13:00:00 8 14 Oeste 38 Oeste 0 946.1 -0.7 72
2019-11-10 12:00:00 7.6 13 Noroeste 39 Noroeste 0 946.3 -- 75
2019-11-10 11:00:00 7.1 13 Noroeste 35 Sudoeste 0 946.6 -- 80
2019-11-10 10:00:00 5.1 13 Oeste 33 Noroeste 0 946.8 -- 86
2019-11-10 09:00:00 3.5 12 Oeste 36 Noroeste 0 -- -- 90
2019-11-10 08:00:00 2.4 9 Oeste 25 Oeste 0 -- -- 92
2019-11-10 07:00:00 3.8 9 Noroeste 30 Noroeste 0 -- -- 85
2019-11-10 06:00:00 3.3 10 Oeste 26 Oeste 0 -- -- 91
2019-11-10 05:00:00 3.7 8 Oeste 25 Oeste 0 -- -- 87
2019-11-10 04:00:00 4.3 10 Noroeste 31 Norte 0 -- -- 85
2019-11-10 03:00:00 4.5 10 Noroeste 31 Sudoeste 0 -- -- 84
2019-11-10 02:00:00 5.1 13 Oeste 32 Noroeste 0 -- -- 88
2019-11-10 01:00:00 6.2 13 Oeste 34 Oeste 0 945.4 -1 85
2019-11-10 00:00:00 6.5 8 Oeste 35 Oeste 0.2 945.8 -1.2 90